createdAt,value
2023-04-04T00:00:09.685Z,3.90
2023-04-04T00:02:36.172Z,4.78
2023-04-04T00:05:02.878Z,4.57
2023-04-04T00:07:29.256Z,5.82
2023-04-04T00:09:55.827Z,8.18
2023-04-04T00:12:24.767Z,4.43
2023-04-04T00:14:53.397Z,4.10
2023-04-04T00:17:19.937Z,5.68
2023-04-04T00:19:46.494Z,4.53
2023-04-04T00:22:13.877Z,6.20
2023-04-04T00:24:40.681Z,4.97
2023-04-04T00:27:07.094Z,6.43
2023-04-04T00:29:34.426Z,3.97
2023-04-04T00:32:01.312Z,3.22
2023-04-04T00:34:27.796Z,3.80
2023-04-04T00:36:54.337Z,3.08
2023-04-04T00:39:20.871Z,5.97
2023-04-04T00:41:50.428Z,6.97
2023-04-04T00:44:17.062Z,3.80
2023-04-04T00:46:43.643Z,7.18
2023-04-04T00:49:10.291Z,4.72
2023-04-04T00:51:36.849Z,4.10
2023-04-04T00:54:03.836Z,4.55
2023-04-04T00:56:33.021Z,3.97
2023-04-04T00:59:00.825Z,3.90
2023-04-04T01:01:27.605Z,3.47
2023-04-04T01:03:54.641Z,3.53
2023-04-04T01:06:21.164Z,4.50
2023-04-04T01:08:48.455Z,4.10
2023-04-04T01:11:16.647Z,5.03
2023-04-04T01:13:43.965Z,4.85
2023-04-04T01:16:13.830Z,7.13
2023-04-04T01:18:42.152Z,4.35
2023-04-04T01:21:11.914Z,5.13
2023-04-04T01:23:59.965Z,5.13
2023-04-04T01:26:31.308Z,9.98
2023-04-04T01:29:01.058Z,3.88
2023-04-04T01:31:49.476Z,4.85
2023-04-04T01:34:28.603Z,5.80
2023-04-04T01:37:10.940Z,7.75
2023-04-04T01:39:49.541Z,5.15
2023-04-04T01:42:16.955Z,3.00
2023-04-04T01:44:46.508Z,4.72
2023-04-04T01:47:13.843Z,5.45
2023-04-04T01:49:40.871Z,7.00
2023-04-04T01:52:07.747Z,6.25
2023-04-04T01:54:35.987Z,8.95
2023-04-04T01:57:02.553Z,4.20
2023-04-04T01:59:29.900Z,8.40
2023-04-04T02:01:56.453Z,7.35
2023-04-04T02:04:23.142Z,4.75
2023-04-04T02:06:50.276Z,10.75
2023-04-04T02:09:16.786Z,4.95
2023-04-04T02:11:43.218Z,6.30
2023-04-04T02:14:09.784Z,7.05
2023-04-04T02:16:36.225Z,3.30
2023-04-04T02:19:02.838Z,4.63
2023-04-04T02:21:29.256Z,3.67
2023-04-04T02:23:55.716Z,7.53
2023-04-04T02:26:22.404Z,5.20
2023-04-04T02:28:48.815Z,6.25
2023-04-04T02:31:15.668Z,3.72
2023-04-04T02:33:42.246Z,7.03
2023-04-04T02:36:09.970Z,7.00
2023-04-04T02:38:36.529Z,7.55
2023-04-04T02:41:05.275Z,8.93
2023-04-04T02:43:31.687Z,4.07
2023-04-04T02:46:01.230Z,8.57
2023-04-04T02:48:32.064Z,7.00
2023-04-04T02:51:01.451Z,6.40
2023-04-04T02:53:28.475Z,5.10
2023-04-04T02:56:02.653Z,6.55
2023-04-04T02:58:31.053Z,4.70
2023-04-04T03:00:57.618Z,4.18
2023-04-04T03:03:28.792Z,6.65
2023-04-04T03:05:55.920Z,4.07
2023-04-04T03:08:22.516Z,6.18
2023-04-04T03:10:48.923Z,5.80
2023-04-04T03:13:15.350Z,3.05
2023-04-04T03:15:41.888Z,6.20
2023-04-04T03:18:08.452Z,7.03
2023-04-04T03:20:34.939Z,3.92
2023-04-04T03:23:01.391Z,3.83
2023-04-04T03:25:27.820Z,4.20
2023-04-04T03:27:54.788Z,5.07
2023-04-04T03:30:24.231Z,5.63
2023-04-04T03:32:50.878Z,4.72
2023-04-04T03:35:17.842Z,6.80
2023-04-04T03:37:44.426Z,5.70
2023-04-04T03:40:11.167Z,5.00
2023-04-04T03:42:38.293Z,7.55
2023-04-04T03:45:09.289Z,5.07
2023-04-04T03:47:36.886Z,6.15
2023-04-04T03:50:03.496Z,7.88
2023-04-04T03:52:31.837Z,3.40
2023-04-04T03:54:58.238Z,8.23
2023-04-04T03:57:27.110Z,6.45
2023-04-04T03:59:53.530Z,4.57
2023-04-04T04:02:21.782Z,9.00
2023-04-04T04:04:48.234Z,7.20
2023-04-04T04:07:14.648Z,5.50
2023-04-04T04:09:42.192Z,8.32
2023-04-04T04:12:08.738Z,6.75
2023-04-04T04:14:35.251Z,6.07
2023-04-04T04:17:02.572Z,5.78
2023-04-04T04:19:29.007Z,7.95
2023-04-04T04:21:56.416Z,6.97
2023-04-04T04:24:22.807Z,5.47
2023-04-04T04:26:49.282Z,5.78
2023-04-04T04:29:16.584Z,6.55
2023-04-04T04:31:43.373Z,6.70
2023-04-04T04:34:10.453Z,7.95
2023-04-04T04:36:38.816Z,6.82
2023-04-04T04:39:24.915Z,7.00
2023-04-04T04:42:03.535Z,6.15
2023-04-04T04:44:30.428Z,5.25
2023-04-04T04:46:57.111Z,5.93
2023-04-04T04:49:23.767Z,8.27
2023-04-04T04:51:51.402Z,10.38
2023-04-04T04:54:19.796Z,4.47
2023-04-04T04:56:52.190Z,6.57
2023-04-04T04:59:19.926Z,6.68
2023-04-04T05:01:47.171Z,6.97
2023-04-04T05:04:17.542Z,9.15
2023-04-04T05:06:56.197Z,6.57
2023-04-04T05:09:22.625Z,5.70
2023-04-04T05:11:49.544Z,7.60
2023-04-04T05:14:20.129Z,5.13
2023-04-04T05:16:52.368Z,7.00
2023-04-04T05:19:18.948Z,8.65
2023-04-04T05:24:27.536Z,9.13
2023-04-04T05:26:54.199Z,10.50
2023-04-04T05:29:20.657Z,12.38
2023-04-04T05:31:49.049Z,14.70
2023-04-04T05:34:19.223Z,11.88
2023-04-04T05:36:47.572Z,20.08
2023-04-04T05:39:14.554Z,23.30
2023-04-04T05:41:51.428Z,16.20
2023-04-04T05:44:20.435Z,14.02
2023-04-04T05:46:46.965Z,13.00
2023-04-04T05:49:13.685Z,8.63
2023-04-04T05:51:46.240Z,8.93
2023-04-04T05:54:15.357Z,6.45
2023-04-04T05:56:42.973Z,6.03
2023-04-04T05:59:21.098Z,8.50
2023-04-04T06:01:58.617Z,7.45
2023-04-04T06:04:25.272Z,6.93
2023-04-04T06:06:53.773Z,5.70
2023-04-04T06:09:21.237Z,10.05
2023-04-04T06:11:47.699Z,8.05
2023-04-04T06:14:15.246Z,7.05
2023-04-04T06:16:42.654Z,6.28
2023-04-04T06:19:09.088Z,5.80
2023-04-04T06:21:35.488Z,4.10
2023-04-04T06:24:02.322Z,5.30
2023-04-04T06:26:28.876Z,5.57
2023-04-04T06:28:55.862Z,8.20
2023-04-04T06:31:34.190Z,8.70
2023-04-04T06:34:07.371Z,4.60
2023-04-04T06:36:42.823Z,6.15
2023-04-04T06:39:11.669Z,4.45
2023-04-04T06:41:38.131Z,6.65
2023-04-04T06:44:04.660Z,7.28
2023-04-04T06:46:33.047Z,3.80
2023-04-04T06:48:59.643Z,8.18
2023-04-04T06:51:26.042Z,5.78
2023-04-04T06:53:52.767Z,8.65
2023-04-04T06:56:19.204Z,6.40
2023-04-04T06:58:45.676Z,8.52
2023-04-04T07:01:12.301Z,5.10
2023-04-04T07:03:38.879Z,6.65
2023-04-04T07:06:05.985Z,4.75
2023-04-04T07:08:36.957Z,8.88
2023-04-04T07:11:04.497Z,8.82
2023-04-04T07:13:30.871Z,7.90
2023-04-04T07:15:57.254Z,7.43
2023-04-04T07:18:23.648Z,5.63
2023-04-04T07:20:50.094Z,4.68
2023-04-04T07:23:16.757Z,6.35
2023-04-04T07:25:44.440Z,9.40
2023-04-04T07:28:13.201Z,6.07
2023-04-04T07:30:39.974Z,7.20
2023-04-04T07:33:06.911Z,9.73
2023-04-04T07:35:34.740Z,6.75
2023-04-04T07:38:01.193Z,6.20
2023-04-04T07:40:27.564Z,8.32
2023-04-04T07:42:54.581Z,5.35
2023-04-04T07:45:24.190Z,7.30
2023-04-04T07:47:50.700Z,7.07
2023-04-04T07:50:17.203Z,6.82
2023-04-04T07:52:49.389Z,6.45
2023-04-04T07:55:16.839Z,5.35
2023-04-04T07:57:43.594Z,11.43
2023-04-04T08:00:10.645Z,6.13
2023-04-04T08:02:43.861Z,7.30
2023-04-04T08:05:10.695Z,8.48
2023-04-04T08:07:37.074Z,11.77
2023-04-04T08:10:03.659Z,5.47
2023-04-04T08:12:30.092Z,6.28
2023-04-04T08:14:56.554Z,7.18
2023-04-04T08:17:23.128Z,7.05
2023-04-04T08:19:49.552Z,6.75
2023-04-04T08:22:15.967Z,5.63
2023-04-04T08:24:42.731Z,6.15
2023-04-04T08:27:09.133Z,6.70
2023-04-04T08:29:35.638Z,6.78
2023-04-04T08:32:02.033Z,5.88
2023-04-04T08:34:28.690Z,10.50
2023-04-04T08:36:56.055Z,4.72
2023-04-04T08:39:22.624Z,6.25
2023-04-04T08:42:02.310Z,9.95
2023-04-04T08:44:30.101Z,8.07
2023-04-04T08:46:56.804Z,10.40
2023-04-04T08:49:26.523Z,6.15
2023-04-04T08:51:55.801Z,9.63
2023-04-04T08:54:24.488Z,5.60
2023-04-04T08:56:52.728Z,8.55
2023-04-04T08:59:20.363Z,5.43
2023-04-04T09:01:47.526Z,8.45
2023-04-04T09:04:13.930Z,6.50
2023-04-04T09:06:40.784Z,5.28
2023-04-04T09:09:07.689Z,8.52
2023-04-04T09:11:35.912Z,10.35
2023-04-04T09:14:04.618Z,7.43
2023-04-04T09:16:31.401Z,5.65
2023-04-04T09:18:57.864Z,11.82
2023-04-04T09:21:24.289Z,8.13
2023-04-04T09:24:01.417Z,7.50
2023-04-04T09:26:27.938Z,9.45
2023-04-04T09:28:55.575Z,7.35
2023-04-04T09:31:24.569Z,4.65
2023-04-04T09:33:51.194Z,5.47
2023-04-04T09:36:18.621Z,6.72
2023-04-04T09:38:49.391Z,5.88
2023-04-04T09:41:17.825Z,17.20
2023-04-04T09:43:45.552Z,9.90
2023-04-04T09:46:12.156Z,7.80
2023-04-04T09:48:38.561Z,5.82
2023-04-04T09:51:06.950Z,7.28
2023-04-04T09:53:36.292Z,7.22
2023-04-04T09:56:03.121Z,6.00
2023-04-04T09:58:31.931Z,6.22
2023-04-04T10:01:01.288Z,8.50
2023-04-04T10:03:29.162Z,7.50
2023-04-04T10:05:59.850Z,8.15
2023-04-04T10:08:28.752Z,10.00
2023-04-04T10:11:09.721Z,6.32
2023-04-04T10:13:41.445Z,6.30
2023-04-04T10:16:09.066Z,5.32
2023-04-04T10:18:36.703Z,8.02
2023-04-04T10:21:15.251Z,4.85
2023-04-04T10:23:45.475Z,10.15
2023-04-04T10:26:13.342Z,5.47
2023-04-04T10:28:40.321Z,8.30
2023-04-04T10:31:20.243Z,4.57
2023-04-04T10:33:53.930Z,7.28
2023-04-04T10:36:24.638Z,5.60
2023-04-04T10:39:32.618Z,9.52
2023-04-04T10:42:00.027Z,7.60
2023-04-04T10:44:33.708Z,7.55
2023-04-04T10:47:22.015Z,7.28
2023-04-04T10:49:50.021Z,6.05
2023-04-04T10:52:22.662Z,6.65
2023-04-04T10:54:55.391Z,7.50
2023-04-04T10:57:23.302Z,9.45
2023-04-04T11:00:06.527Z,17.75
2023-04-04T11:02:56.800Z,5.15
2023-04-04T11:05:33.136Z,11.10
2023-04-04T11:10:33.722Z,9.77
2023-04-04T11:13:12.668Z,5.10
2023-04-04T11:15:53.216Z,6.63
2023-04-04T11:18:32.589Z,7.88
2023-04-04T11:21:05.112Z,5.13
2023-04-04T11:23:49.677Z,5.93
2023-04-04T11:26:35.653Z,7.25
2023-04-04T11:29:04.097Z,11.98
2023-04-04T11:31:38.995Z,4.47
2023-04-04T11:34:11.266Z,5.20
2023-04-04T11:36:37.771Z,4.70
2023-04-04T11:39:11.931Z,5.47
2023-04-04T11:42:08.126Z,6.57
2023-04-04T11:44:41.688Z,5.05
2023-04-04T11:47:09.241Z,8.40
2023-04-04T11:49:41.587Z,4.00
2023-04-04T11:52:12.058Z,6.57
2023-04-04T11:54:40.144Z,6.53
2023-04-04T11:57:08.147Z,6.18
2023-04-04T11:59:40.612Z,5.95
2023-04-04T12:02:09.185Z,5.43
2023-04-04T12:04:45.349Z,7.97
2023-04-04T12:07:13.737Z,5.28
2023-04-04T12:09:40.641Z,4.57
2023-04-04T12:12:07.742Z,3.90
2023-04-04T12:14:34.251Z,9.00
2023-04-04T12:17:02.949Z,4.63
2023-04-04T12:19:29.777Z,6.60
2023-04-04T12:21:57.780Z,5.38
2023-04-04T12:24:24.391Z,7.22
2023-04-04T12:26:52.764Z,7.45
2023-04-04T12:29:21.825Z,6.35
2023-04-04T12:31:49.551Z,6.13
2023-04-04T12:34:23.226Z,5.90
2023-04-04T12:36:55.781Z,6.88
2023-04-04T12:39:23.190Z,5.30
2023-04-04T12:42:04.458Z,7.43
2023-04-04T12:44:39.300Z,7.38
2023-04-04T12:47:07.770Z,7.93
2023-04-04T12:49:39.273Z,6.13
2023-04-04T12:52:07.661Z,6.45
2023-04-04T12:54:37.291Z,6.05
2023-04-04T12:57:05.656Z,10.23
2023-04-04T12:59:34.419Z,7.47
2023-04-04T13:02:03.099Z,7.13
2023-04-04T13:04:29.630Z,6.50
2023-04-04T13:06:56.167Z,6.25
2023-04-04T13:09:23.575Z,4.78
2023-04-04T13:12:04.434Z,7.80
2023-04-04T13:14:56.844Z,7.75
2023-04-04T13:17:23.636Z,4.65
2023-04-04T13:19:51.568Z,6.13
2023-04-04T13:22:18.343Z,5.20
2023-04-04T13:24:44.766Z,5.45
2023-04-04T13:27:11.166Z,5.18
2023-04-04T13:29:37.608Z,6.47
2023-04-04T13:32:04.920Z,5.90
2023-04-04T13:34:31.525Z,5.35
2023-04-04T13:36:58.049Z,5.88
2023-04-04T13:39:25.076Z,6.05
2023-04-04T13:41:51.488Z,6.68
2023-04-04T13:44:17.880Z,12.48
2023-04-04T13:46:44.308Z,6.80
2023-04-04T13:49:11.023Z,5.30
2023-04-04T13:51:37.581Z,5.55
2023-04-04T13:54:04.032Z,4.45
2023-04-04T13:56:30.478Z,8.13
2023-04-04T13:58:57.032Z,5.15
2023-04-04T14:01:23.546Z,5.95
2023-04-04T14:03:50.254Z,4.45
2023-04-04T14:06:16.777Z,6.70
2023-04-04T14:08:43.264Z,4.50
2023-04-04T14:11:09.713Z,7.45
2023-04-04T14:13:36.785Z,7.28
2023-04-04T14:16:03.594Z,10.05
2023-04-04T14:18:30.186Z,6.53
2023-04-04T14:20:56.728Z,6.22
2023-04-04T14:23:26.409Z,4.38
2023-04-04T14:25:52.934Z,5.07
2023-04-04T14:28:19.410Z,8.70
2023-04-04T14:30:46.028Z,6.70
2023-04-04T14:33:12.518Z,7.20
2023-04-04T14:35:39.314Z,7.40
2023-04-04T14:38:05.993Z,6.75
2023-04-04T14:40:32.380Z,7.72
2023-04-04T14:42:58.886Z,8.38
2023-04-04T14:45:26.059Z,8.25
2023-04-04T14:47:52.512Z,8.38
2023-04-04T14:50:18.936Z,4.68
2023-04-04T14:52:45.399Z,6.38
2023-04-04T14:55:12.213Z,7.47
2023-04-04T14:57:46.973Z,4.82
2023-04-04T15:00:24.067Z,5.18
2023-04-04T15:02:51.233Z,6.18
2023-04-04T15:05:19.612Z,5.55
2023-04-04T15:07:46.765Z,6.07
2023-04-04T15:10:13.746Z,6.43
2023-04-04T15:12:40.224Z,6.25
2023-04-04T15:15:07.223Z,4.85
2023-04-04T15:17:33.692Z,4.95
2023-04-04T15:20:00.179Z,6.88
2023-04-04T15:22:26.685Z,5.45
2023-04-04T15:24:53.158Z,3.72
2023-04-04T15:27:19.805Z,4.15
2023-04-04T15:29:46.407Z,6.43
2023-04-04T15:32:13.223Z,6.78
2023-04-04T15:34:40.535Z,9.32
2023-04-04T15:37:09.496Z,6.95
2023-04-04T15:39:46.072Z,12.90
2023-04-04T15:42:18.574Z,6.88
2023-04-04T15:44:44.961Z,8.20
2023-04-04T15:47:11.478Z,5.55
2023-04-04T15:49:37.979Z,6.82
2023-04-04T15:52:04.631Z,11.80
2023-04-04T15:54:31.431Z,5.10
2023-04-04T15:56:57.856Z,5.50
2023-04-04T15:59:24.333Z,6.60
2023-04-04T16:01:51.177Z,5.53
2023-04-04T16:04:17.699Z,6.25
2023-04-04T16:06:44.150Z,7.70
2023-04-04T16:09:10.604Z,6.38
2023-04-04T16:11:37.797Z,6.50
2023-04-04T16:14:05.885Z,12.32
2023-04-04T16:16:32.355Z,7.68
2023-04-04T16:18:58.906Z,8.05
2023-04-04T16:21:26.462Z,7.68
2023-04-04T16:23:52.866Z,7.32
2023-04-04T16:26:20.647Z,10.35
2023-04-04T16:28:47.435Z,8.05
2023-04-04T16:31:17.567Z,7.32
2023-04-04T16:33:44.082Z,11.45
2023-04-04T16:36:10.680Z,15.55
2023-04-04T16:38:37.117Z,18.23
2023-04-04T16:41:04.839Z,13.90
2023-04-04T16:43:31.350Z,28.40
2023-04-04T16:45:57.777Z,18.58
2023-04-04T16:48:24.244Z,16.92
2023-04-04T16:50:50.906Z,8.80
2023-04-04T16:53:17.365Z,7.72
2023-04-04T16:55:43.766Z,6.63
2023-04-04T16:58:10.267Z,7.55
2023-04-04T17:00:36.691Z,6.80
2023-04-04T17:03:03.607Z,8.48
2023-04-04T17:05:30.105Z,7.25
2023-04-04T17:07:56.710Z,7.78
2023-04-04T17:10:23.129Z,11.23
2023-04-04T17:12:49.717Z,8.38
2023-04-04T17:15:17.884Z,10.10
2023-04-04T17:17:45.057Z,7.85
2023-04-04T17:20:17.517Z,7.18
2023-04-04T17:22:45.362Z,6.38
2023-04-04T17:25:12.004Z,13.23
2023-04-04T17:27:38.450Z,13.02
2023-04-04T17:30:05.626Z,15.95
2023-04-04T17:32:32.119Z,16.80
2023-04-04T17:34:58.547Z,16.20
2023-04-04T17:37:24.992Z,11.70
2023-04-04T17:39:51.434Z,13.88
2023-04-04T17:42:17.879Z,10.75
2023-04-04T17:44:44.260Z,10.82
2023-04-04T17:47:12.182Z,9.07
2023-04-04T17:49:39.726Z,11.18
2023-04-04T17:52:06.248Z,10.45
2023-04-04T17:54:33.020Z,8.18
2023-04-04T17:57:00.198Z,9.30
2023-04-04T17:59:27.739Z,8.23
2023-04-04T18:01:54.409Z,10.55
2023-04-04T18:04:22.186Z,8.52
2023-04-04T18:06:48.642Z,10.82
2023-04-04T18:09:15.112Z,10.45
2023-04-04T18:11:41.739Z,10.15
2023-04-04T18:14:08.641Z,10.07
2023-04-04T18:16:39.810Z,8.40
2023-04-04T18:19:07.976Z,5.88
2023-04-04T18:21:34.352Z,6.90
2023-04-04T18:24:01.466Z,11.45
2023-04-04T18:26:28.160Z,10.93
2023-04-04T18:28:54.587Z,7.40
2023-04-04T18:31:21.477Z,7.25
2023-04-04T18:33:49.794Z,7.75
2023-04-04T18:36:16.385Z,8.02
2023-04-04T18:38:42.852Z,8.50
2023-04-04T18:41:09.896Z,8.10
2023-04-04T18:43:37.302Z,6.28
2023-04-04T18:46:05.637Z,9.48
2023-04-04T18:48:33.601Z,7.65
2023-04-04T18:51:00.563Z,7.28
2023-04-04T18:53:29.688Z,7.10
2023-04-04T18:55:59.560Z,7.20
2023-04-04T18:58:26.590Z,7.97
2023-04-04T19:00:55.528Z,9.13
2023-04-04T19:03:22.348Z,8.00
2023-04-04T19:05:49.607Z,6.93
2023-04-04T19:08:17.796Z,9.95
2023-04-04T19:10:47.258Z,9.18
2023-04-04T19:13:15.026Z,10.00
2023-04-04T19:15:42.967Z,11.05
2023-04-04T19:18:10.612Z,8.13
2023-04-04T19:20:37.249Z,10.57
2023-04-04T19:23:03.816Z,11.05
2023-04-04T19:25:30.564Z,13.82
2023-04-04T19:27:57.350Z,15.98
2023-04-04T19:30:47.139Z,10.55
2023-04-04T19:33:18.530Z,9.93
2023-04-04T19:36:08.279Z,8.55
2023-04-04T19:38:37.238Z,9.27
2023-04-04T19:41:08.919Z,16.17
2023-04-04T19:43:35.920Z,15.07
2023-04-04T19:46:09.480Z,11.48
2023-04-04T19:48:38.629Z,6.05
2023-04-04T19:51:36.185Z,11.32
2023-04-04T19:54:02.671Z,7.75
2023-04-04T19:56:29.124Z,9.52
2023-04-04T19:59:05.294Z,11.43
2023-04-04T20:01:34.775Z,9.63
2023-04-04T20:04:10.234Z,8.82
2023-04-04T20:06:38.264Z,5.93
2023-04-04T20:09:12.992Z,9.00
2023-04-04T20:11:39.865Z,11.10
2023-04-04T20:14:07.851Z,9.90
2023-04-04T20:16:34.442Z,10.40
2023-04-04T20:19:03.464Z,15.82
2023-04-04T20:21:33.747Z,14.15
2023-04-04T20:24:05.923Z,17.40
2023-04-04T20:26:47.826Z,14.55
2023-04-04T20:29:16.840Z,18.70
2023-04-04T20:31:55.480Z,15.90
2023-04-04T20:34:38.353Z,18.45
2023-04-04T20:37:12.525Z,15.38
2023-04-04T20:39:55.224Z,14.07
2023-04-04T20:42:30.764Z,16.35
2023-04-04T20:45:08.475Z,14.25
2023-04-04T20:47:45.397Z,12.85
2023-04-04T20:50:17.797Z,17.27
2023-04-04T20:52:52.988Z,12.80
2023-04-04T20:55:22.392Z,13.68
2023-04-04T20:57:50.811Z,7.95
2023-04-04T21:00:29.569Z,11.80
2023-04-04T21:02:58.531Z,13.13
2023-04-04T21:05:33.418Z,9.48
2023-04-04T21:08:01.546Z,8.77
2023-04-04T21:10:28.350Z,10.10
2023-04-04T21:13:00.851Z,9.18
2023-04-04T21:15:30.048Z,7.50
2023-04-04T21:18:02.212Z,10.13
2023-04-04T21:21:01.174Z,9.63
2023-04-04T21:23:27.544Z,9.38
2023-04-04T21:26:04.860Z,9.77
2023-04-04T21:28:33.467Z,11.68
2023-04-04T21:31:01.188Z,12.40
2023-04-04T21:33:27.752Z,10.43
2023-04-04T21:35:56.068Z,10.02
2023-04-04T21:38:33.757Z,10.38
2023-04-04T21:41:22.499Z,8.57
2023-04-04T21:43:49.056Z,11.07
2023-04-04T21:46:15.488Z,10.15
2023-04-04T21:48:42.311Z,8.77
2023-04-04T21:51:08.715Z,11.15
2023-04-04T21:53:35.215Z,9.60
2023-04-04T21:56:01.647Z,11.73
2023-04-04T21:58:29.336Z,11.63
2023-04-04T22:00:55.884Z,12.00
2023-04-04T22:03:22.330Z,9.15
2023-04-04T22:05:48.991Z,12.32
2023-04-04T22:08:15.511Z,9.75
2023-04-04T22:10:50.162Z,11.25
2023-04-04T22:13:18.616Z,11.60
2023-04-04T22:15:46.912Z,9.55
2023-04-04T22:18:17.146Z,15.40
2023-04-04T22:20:47.774Z,11.30
2023-04-04T22:23:17.652Z,10.27
2023-04-04T22:25:44.276Z,8.77
2023-04-04T22:28:10.769Z,10.45
2023-04-04T22:30:39.143Z,10.55
2023-04-04T22:33:05.896Z,10.95
2023-04-04T22:35:32.833Z,12.10
2023-04-04T22:38:03.531Z,7.03
2023-04-04T22:40:31.910Z,8.38
2023-04-04T22:42:59.399Z,7.70
2023-04-04T22:45:26.717Z,8.23
2023-04-04T22:47:53.266Z,12.25
2023-04-04T22:50:23.145Z,10.93
2023-04-04T22:52:49.950Z,13.13
2023-04-04T22:55:20.221Z,8.68
2023-04-04T22:57:46.841Z,11.80
2023-04-04T23:00:14.657Z,8.93
2023-04-04T23:02:42.619Z,12.85
2023-04-04T23:05:10.575Z,14.15
2023-04-04T23:07:38.004Z,10.52
2023-04-04T23:10:06.005Z,7.22
2023-04-04T23:12:32.888Z,12.65
2023-04-04T23:15:01.445Z,8.65
2023-04-04T23:17:28.081Z,10.77
2023-04-04T23:19:54.818Z,11.02
2023-04-04T23:22:21.464Z,11.35
2023-04-04T23:24:48.472Z,8.55
2023-04-04T23:27:15.673Z,7.68
2023-04-04T23:29:42.978Z,8.98
2023-04-04T23:32:10.062Z,11.57
2023-04-04T23:34:36.588Z,7.70
2023-04-04T23:37:03.804Z,11.73
2023-04-04T23:39:30.279Z,10.10
2023-04-04T23:41:58.238Z,9.02
2023-04-04T23:44:24.689Z,8.05
2023-04-04T23:46:51.452Z,8.75
2023-04-04T23:49:18.081Z,14.25
2023-04-04T23:51:44.799Z,8.85
2023-04-04T23:54:12.811Z,10.25
2023-04-04T23:56:39.855Z,9.88
2023-04-04T23:59:06.518Z,10.80
